createdAt,value
2022-12-22T00:01:32.446Z,24.83
2022-12-22T00:05:52.786Z,23.58
2022-12-22T00:10:13.244Z,24.45
2022-12-22T00:14:33.817Z,26.42
2022-12-22T00:18:54.679Z,23.65
2022-12-22T00:23:15.153Z,22.92
2022-12-22T00:27:45.379Z,24.48
2022-12-22T00:32:06.550Z,22.55
2022-12-22T00:36:30.550Z,20.67
2022-12-22T00:40:51.026Z,21.88
2022-12-22T00:45:11.752Z,19.08
2022-12-22T00:49:33.294Z,19.98
2022-12-22T00:53:54.374Z,22.87
2022-12-22T00:58:14.930Z,22.88
2022-12-22T01:02:36.071Z,23.80
2022-12-22T01:06:56.915Z,22.08
2022-12-22T01:11:17.370Z,22.65
2022-12-22T01:15:39.618Z,25.00
2022-12-22T01:20:00.203Z,24.30
2022-12-22T01:24:20.680Z,21.63
2022-12-22T01:28:41.476Z,24.10
2022-12-22T01:33:02.131Z,25.45
2022-12-22T01:37:23.112Z,25.05
2022-12-22T01:41:44.729Z,24.23
2022-12-22T01:46:05.946Z,24.77
2022-12-22T01:50:26.996Z,26.00
2022-12-22T01:54:47.616Z,24.52
2022-12-22T01:59:17.790Z,22.90
2022-12-22T02:03:40.919Z,23.52
2022-12-22T02:08:13.392Z,24.40
2022-12-22T02:12:46.379Z,24.98
2022-12-22T02:17:29.713Z,21.40
2022-12-22T02:22:02.911Z,21.58
2022-12-22T02:27:01.667Z,22.15
2022-12-22T02:31:24.689Z,21.23
2022-12-22T02:35:45.746Z,21.77
2022-12-22T02:40:15.246Z,21.27
2022-12-22T02:45:06.908Z,21.40
2022-12-22T02:50:13.031Z,22.02
2022-12-22T02:54:36.570Z,22.25
2022-12-22T02:58:57.451Z,22.55
2022-12-22T03:03:17.970Z,21.10
2022-12-22T03:07:38.786Z,21.63
2022-12-22T03:11:59.673Z,20.95
2022-12-22T03:16:20.154Z,21.63
2022-12-22T03:20:40.731Z,20.40
2022-12-22T03:25:01.171Z,20.85
2022-12-22T03:29:03.186Z,21.20
2022-12-22T03:33:05.667Z,21.10
2022-12-22T03:37:07.592Z,21.58
2022-12-22T03:41:29.490Z,22.33
2022-12-22T03:45:50.258Z,22.33
2022-12-22T03:49:52.536Z,21.45
2022-12-22T03:53:54.540Z,22.60
2022-12-22T03:57:56.570Z,22.20
2022-12-22T04:01:58.684Z,22.00
2022-12-22T04:10:22.130Z,21.65
2022-12-22T04:14:29.682Z,22.42
2022-12-22T04:18:35.282Z,23.45
2022-12-22T04:22:37.275Z,22.95
2022-12-22T04:26:39.261Z,21.80
2022-12-22T04:30:41.456Z,21.80
2022-12-22T04:34:43.443Z,22.83
2022-12-22T04:38:45.645Z,23.40
2022-12-22T04:46:49.500Z,22.00
2022-12-22T04:50:52.903Z,21.55
2022-12-22T04:54:54.991Z,20.80
2022-12-22T05:02:58.909Z,19.60
2022-12-22T05:11:03.182Z,19.73
2022-12-22T05:15:05.468Z,20.17
2022-12-22T05:23:09.516Z,19.30
2022-12-22T05:27:12.497Z,19.00
2022-12-22T05:31:18.520Z,19.30
2022-12-22T05:35:20.561Z,19.42
2022-12-22T05:43:24.390Z,19.37
2022-12-22T05:47:26.334Z,18.85
2022-12-22T05:51:28.308Z,20.35
2022-12-22T05:55:30.296Z,18.65
2022-12-22T05:59:32.299Z,17.02
2022-12-22T06:03:34.457Z,17.50
2022-12-22T06:11:38.454Z,17.50
2022-12-22T06:15:40.527Z,19.23
2022-12-22T06:23:44.501Z,15.75
2022-12-22T06:27:47.763Z,14.73
2022-12-22T06:31:49.900Z,16.08
2022-12-22T06:40:01.261Z,15.27
2022-12-22T06:44:03.238Z,16.23
2022-12-22T06:48:05.903Z,17.65
2022-12-22T06:52:09.134Z,17.73
2022-12-22T06:56:11.199Z,18.58
2022-12-22T07:04:19.874Z,17.92
2022-12-22T07:08:21.946Z,18.08
2022-12-22T07:16:26.493Z,15.82
2022-12-22T07:20:28.511Z,15.93
2022-12-22T07:24:33.808Z,16.90
2022-12-22T07:28:37.843Z,15.85
2022-12-22T07:32:39.805Z,14.90
2022-12-22T07:36:41.814Z,14.00
2022-12-22T07:40:47.914Z,14.45
2022-12-22T07:44:53.623Z,14.52
2022-12-22T07:49:14.359Z,12.60
2022-12-22T07:53:16.318Z,12.88
2022-12-22T07:57:18.285Z,12.77
2022-12-22T08:01:20.379Z,14.13
2022-12-22T08:09:25.079Z,11.82
2022-12-22T08:13:27.093Z,11.10
2022-12-22T08:17:29.623Z,11.45
2022-12-22T08:21:31.606Z,12.75
2022-12-22T08:25:34.877Z,12.27
2022-12-22T08:29:44.751Z,13.30
2022-12-22T08:33:47.940Z,12.70
2022-12-22T08:37:50.920Z,13.05
2022-12-22T08:41:53.562Z,13.18
2022-12-22T08:45:55.647Z,15.18
2022-12-22T08:49:57.725Z,14.80
2022-12-22T08:58:07.983Z,14.75
2022-12-22T09:02:10.043Z,14.93
2022-12-22T09:10:14.029Z,12.68
2022-12-22T09:14:16.019Z,13.38
2022-12-22T09:18:17.964Z,13.50
2022-12-22T09:22:26.814Z,11.77
2022-12-22T09:26:30.724Z,11.98
2022-12-22T09:30:33.198Z,11.35
2022-12-22T09:34:35.258Z,11.05
2022-12-22T09:38:38.124Z,9.20
2022-12-22T09:42:40.136Z,8.98
2022-12-22T09:46:42.356Z,8.82
2022-12-22T09:54:46.301Z,8.60
2022-12-22T09:58:48.276Z,9.05
2022-12-22T10:03:05.944Z,9.02
2022-12-22T10:07:19.765Z,9.48
2022-12-22T10:11:21.718Z,9.13
2022-12-22T10:15:24.621Z,9.20
2022-12-22T10:19:26.561Z,9.27
2022-12-22T10:23:29.992Z,9.95
2022-12-22T10:27:37.333Z,9.02
2022-12-22T10:32:04.975Z,8.68
2022-12-22T10:36:07.738Z,8.90
2022-12-22T10:40:22.916Z,9.50
2022-12-22T10:44:28.500Z,8.70
2022-12-22T10:48:40.481Z,8.85
2022-12-22T10:52:54.150Z,8.73
2022-12-22T10:57:13.365Z,7.93
2022-12-22T11:01:27.670Z,6.85
2022-12-22T11:05:31.397Z,8.00
2022-12-22T11:09:34.949Z,7.07
2022-12-22T11:13:55.306Z,7.60
2022-12-22T11:18:54.256Z,7.45
2022-12-22T11:23:20.776Z,7.28
2022-12-22T11:27:34.692Z,6.53
2022-12-22T11:31:45.296Z,6.13
2022-12-22T11:36:02.058Z,6.15
2022-12-22T11:40:10.995Z,6.50
2022-12-22T11:44:47.249Z,6.68
2022-12-22T11:49:16.044Z,5.75
2022-12-22T11:53:49.215Z,5.82
2022-12-22T11:58:06.287Z,5.53
2022-12-22T12:02:36.246Z,5.95
2022-12-22T12:07:01.280Z,6.07
